sensor_id;sensor_type;location;lat;lon;timestamp;P1;durP1;ratioP1;P2;durP2;ratioP2
70558;SDS011;58108;48.094;11.838;2024-03-06T00:00:01;18.97;;;7.10;;
70558;SDS011;58108;48.094;11.838;2024-03-06T00:02:29;18.50;;;6.55;;
70558;SDS011;58108;48.094;11.838;2024-03-06T00:04:55;17.43;;;6.67;;
70558;SDS011;58108;48.094;11.838;2024-03-06T00:07:20;16.27;;;5.97;;
70558;SDS011;58108;48.094;11.838;2024-03-06T00:09:46;19.77;;;6.13;;
70558;SDS011;58108;48.094;11.838;2024-03-06T00:12:11;21.93;;;6.87;;
70558;SDS011;58108;48.094;11.838;2024-03-06T00:14:37;17.60;;;6.83;;
70558;SDS011;58108;48.094;11.838;2024-03-06T00:17:03;17.77;;;6.90;;
70558;SDS011;58108;48.094;11.838;2024-03-06T00:19:32;20.02;;;6.43;;
70558;SDS011;58108;48.094;11.838;2024-03-06T00:21:59;21.47;;;7.77;;
70558;SDS011;58108;48.094;11.838;2024-03-06T00:24:26;20.77;;;7.78;;
70558;SDS011;58108;48.094;11.838;2024-03-06T00:26:52;18.83;;;6.97;;
70558;SDS011;58108;48.094;11.838;2024-03-06T00:29:17;20.53;;;6.87;;
70558;SDS011;58108;48.094;11.838;2024-03-06T00:31:43;20.80;;;7.40;;
70558;SDS011;58108;48.094;11.838;2024-03-06T00:34:10;20.65;;;7.32;;
70558;SDS011;58108;48.094;11.838;2024-03-06T00:36:37;20.50;;;6.63;;
70558;SDS011;58108;48.094;11.838;2024-03-06T00:39:03;19.83;;;6.60;;
70558;SDS011;58108;48.094;11.838;2024-03-06T00:41:30;15.47;;;5.77;;
70558;SDS011;58108;48.094;11.838;2024-03-06T00:43:56;19.67;;;6.75;;
70558;SDS011;58108;48.094;11.838;2024-03-06T00:46:21;19.50;;;6.23;;
70558;SDS011;58108;48.094;11.838;2024-03-06T00:48:47;20.20;;;6.43;;
70558;SDS011;58108;48.094;11.838;2024-03-06T00:51:12;21.77;;;7.07;;
70558;SDS011;58108;48.094;11.838;2024-03-06T00:53:38;18.85;;;6.15;;
70558;SDS011;58108;48.094;11.838;2024-03-06T00:56:04;21.53;;;7.80;;
70558;SDS011;58108;48.094;11.838;2024-03-06T00:58:29;23.05;;;7.65;;
70558;SDS011;58108;48.094;11.838;2024-03-06T01:00:55;22.90;;;7.07;;
70558;SDS011;58108;48.094;11.838;2024-03-06T01:03:20;23.17;;;7.87;;
70558;SDS011;58108;48.094;11.838;2024-03-06T01:05:46;20.98;;;7.60;;
70558;SDS011;58108;48.094;11.838;2024-03-06T01:08:11;22.50;;;7.97;;
70558;SDS011;58108;48.094;11.838;2024-03-06T01:10:37;18.93;;;7.27;;
70558;SDS011;58108;48.094;11.838;2024-03-06T01:13:03;22.75;;;7.93;;
70558;SDS011;58108;48.094;11.838;2024-03-06T01:15:28;21.43;;;7.47;;
70558;SDS011;58108;48.094;11.838;2024-03-06T01:17:54;22.27;;;8.17;;
70558;SDS011;58108;48.094;11.838;2024-03-06T01:20:19;24.48;;;7.57;;
70558;SDS011;58108;48.094;11.838;2024-03-06T01:22:45;21.40;;;7.40;;
70558;SDS011;58108;48.094;11.838;2024-03-06T01:25:11;24.08;;;8.02;;
70558;SDS011;58108;48.094;11.838;2024-03-06T01:27:37;24.07;;;8.20;;
70558;SDS011;58108;48.094;11.838;2024-03-06T01:30:02;21.77;;;7.20;;
70558;SDS011;58108;48.094;11.838;2024-03-06T01:32:29;20.75;;;6.50;;
70558;SDS011;58108;48.094;11.838;2024-03-06T01:34:55;19.60;;;6.28;;
70558;SDS011;58108;48.094;11.838;2024-03-06T01:37:20;23.03;;;7.37;;
70558;SDS011;58108;48.094;11.838;2024-03-06T01:39:46;26.55;;;7.28;;
70558;SDS011;58108;48.094;11.838;2024-03-06T01:42:12;20.67;;;6.30;;
70558;SDS011;58108;48.094;11.838;2024-03-06T01:44:37;21.17;;;7.53;;
70558;SDS011;58108;48.094;11.838;2024-03-06T01:47:03;19.60;;;7.70;;
70558;SDS011;58108;48.094;11.838;2024-03-06T01:49:29;22.33;;;7.07;;
70558;SDS011;58108;48.094;11.838;2024-03-06T01:51:55;25.77;;;8.10;;
70558;SDS011;58108;48.094;11.838;2024-03-06T01:54:24;21.25;;;7.30;;
70558;SDS011;58108;48.094;11.838;2024-03-06T01:56:51;26.77;;;8.07;;
70558;SDS011;58108;48.094;11.838;2024-03-06T01:59:17;20.92;;;6.93;;
70558;SDS011;58108;48.094;11.838;2024-03-06T02:01:46;22.48;;;8.05;;
70558;SDS011;58108;48.094;11.838;2024-03-06T02:04:11;25.60;;;8.00;;
70558;SDS011;58108;48.094;11.838;2024-03-06T02:06:40;22.17;;;7.68;;
70558;SDS011;58108;48.094;11.838;2024-03-06T02:09:07;23.85;;;6.88;;
70558;SDS011;58108;48.094;11.838;2024-03-06T02:11:34;21.20;;;7.77;;
70558;SDS011;58108;48.094;11.838;2024-03-06T02:14:00;24.13;;;7.85;;
70558;SDS011;58108;48.094;11.838;2024-03-06T02:16:26;25.00;;;7.93;;
70558;SDS011;58108;48.094;11.838;2024-03-06T02:18:52;25.77;;;7.67;;
70558;SDS011;58108;48.094;11.838;2024-03-06T02:21:20;26.67;;;8.55;;
70558;SDS011;58108;48.094;11.838;2024-03-06T02:23:46;25.88;;;8.05;;
70558;SDS011;58108;48.094;11.838;2024-03-06T02:26:11;18.57;;;6.97;;
70558;SDS011;58108;48.094;11.838;2024-03-06T02:28:37;4.33;;;1.40;;
70558;SDS011;58108;48.094;11.838;2024-03-06T02:31:02;2.97;;;1.05;;
70558;SDS011;58108;48.094;11.838;2024-03-06T02:33:29;3.23;;;0.73;;
70558;SDS011;58108;48.094;11.838;2024-03-06T02:35:54;3.40;;;0.77;;
70558;SDS011;58108;48.094;11.838;2024-03-06T02:38:20;2.63;;;0.70;;
70558;SDS011;58108;48.094;11.838;2024-03-06T02:40:45;3.38;;;1.25;;
70558;SDS011;58108;48.094;11.838;2024-03-06T02:43:11;3.72;;;1.10;;
70558;SDS011;58108;48.094;11.838;2024-03-06T02:45:36;3.67;;;1.50;;
70558;SDS011;58108;48.094;11.838;2024-03-06T02:48:02;3.07;;;1.03;;
70558;SDS011;58108;48.094;11.838;2024-03-06T02:50:28;2.40;;;0.70;;
70558;SDS011;58108;48.094;11.838;2024-03-06T02:52:53;3.80;;;1.23;;
70558;SDS011;58108;48.094;11.838;2024-03-06T02:55:19;3.10;;;1.20;;
70558;SDS011;58108;48.094;11.838;2024-03-06T02:57:44;3.63;;;1.27;;
70558;SDS011;58108;48.094;11.838;2024-03-06T03:00:10;3.13;;;0.80;;
70558;SDS011;58108;48.094;11.838;2024-03-06T03:02:38;3.35;;;1.02;;
70558;SDS011;58108;48.094;11.838;2024-03-06T03:05:04;3.30;;;0.77;;
70558;SDS011;58108;48.094;11.838;2024-03-06T03:07:31;1.93;;;0.47;;
70558;SDS011;58108;48.094;11.838;2024-03-06T03:09:57;2.65;;;0.45;;
70558;SDS011;58108;48.094;11.838;2024-03-06T03:12:22;2.55;;;0.90;;
70558;SDS011;58108;48.094;11.838;2024-03-06T03:14:48;2.63;;;0.77;;
70558;SDS011;58108;48.094;11.838;2024-03-06T03:17:13;0.83;;;0.10;;
70558;SDS011;58108;48.094;11.838;2024-03-06T03:19:40;2.67;;;0.38;;
70558;SDS011;58108;48.094;11.838;2024-03-06T03:22:06;2.28;;;0.40;;
70558;SDS011;58108;48.094;11.838;2024-03-06T03:24:33;1.97;;;0.33;;
70558;SDS011;58108;48.094;11.838;2024-03-06T03:26:58;2.63;;;0.65;;
70558;SDS011;58108;48.094;11.838;2024-03-06T03:29:24;1.88;;;0.40;;
70558;SDS011;58108;48.094;11.838;2024-03-06T03:31:50;2.43;;;0.53;;
70558;SDS011;58108;48.094;11.838;2024-03-06T03:34:15;2.20;;;0.57;;
70558;SDS011;58108;48.094;11.838;2024-03-06T03:36:41;1.73;;;0.30;;
70558;SDS011;58108;48.094;11.838;2024-03-06T03:39:09;1.90;;;0.30;;
70558;SDS011;58108;48.094;11.838;2024-03-06T03:41:44;3.08;;;0.75;;
70558;SDS011;58108;48.094;11.838;2024-03-06T03:44:20;1.60;;;0.30;;
70558;SDS011;58108;48.094;11.838;2024-03-06T03:46:45;1.95;;;0.50;;
70558;SDS011;58108;48.094;11.838;2024-03-06T03:49:11;0.83;;;0.20;;
70558;SDS011;58108;48.094;11.838;2024-03-06T03:51:37;2.58;;;0.30;;
70558;SDS011;58108;48.094;11.838;2024-03-06T03:54:04;2.50;;;0.50;;
70558;SDS011;58108;48.094;11.838;2024-03-06T03:56:31;2.40;;;0.55;;
70558;SDS011;58108;48.094;11.838;2024-03-06T03:58:57;1.63;;;0.30;;
70558;SDS011;58108;48.094;11.838;2024-03-06T04:01:23;2.47;;;0.70;;
70558;SDS011;58108;48.094;11.838;2024-03-06T04:03:50;1.30;;;0.15;;
70558;SDS011;58108;48.094;11.838;2024-03-06T04:06:16;1.95;;;0.30;;
70558;SDS011;58108;48.094;11.838;2024-03-06T04:08:42;4.00;;;0.40;;
70558;SDS011;58108;48.094;11.838;2024-03-06T04:11:07;1.48;;;0.45;;
70558;SDS011;58108;48.094;11.838;2024-03-06T04:13:36;2.77;;;0.70;;
70558;SDS011;58108;48.094;11.838;2024-03-06T04:16:03;1.25;;;0.40;;
70558;SDS011;58108;48.094;11.838;2024-03-06T04:18:29;2.28;;;0.50;;
70558;SDS011;58108;48.094;11.838;2024-03-06T04:21:04;2.23;;;0.40;;
70558;SDS011;58108;48.094;11.838;2024-03-06T04:23:31;1.30;;;0.28;;
70558;SDS011;58108;48.094;11.838;2024-03-06T04:25:58;0.38;;;0.10;;
70558;SDS011;58108;48.094;11.838;2024-03-06T04:28:24;1.95;;;0.40;;
70558;SDS011;58108;48.094;11.838;2024-03-06T04:30:49;1.87;;;0.50;;
70558;SDS011;58108;48.094;11.838;2024-03-06T04:33:15;1.77;;;0.30;;
70558;SDS011;58108;48.094;11.838;2024-03-06T04:35:41;1.20;;;0.10;;
70558;SDS011;58108;48.094;11.838;2024-03-06T04:38:07;2.30;;;0.50;;
70558;SDS011;58108;48.094;11.838;2024-03-06T04:40:33;1.83;;;0.38;;
70558;SDS011;58108;48.094;11.838;2024-03-06T04:42:59;1.30;;;0.30;;
70558;SDS011;58108;48.094;11.838;2024-03-06T04:45:25;2.10;;;0.47;;
70558;SDS011;58108;48.094;11.838;2024-03-06T04:47:51;2.17;;;0.40;;
70558;SDS011;58108;48.094;11.838;2024-03-06T04:50:16;1.17;;;0.23;;
70558;SDS011;58108;48.094;11.838;2024-03-06T04:52:42;1.48;;;0.30;;
70558;SDS011;58108;48.094;11.838;2024-03-06T04:55:10;1.70;;;0.35;;
70558;SDS011;58108;48.094;11.838;2024-03-06T04:57:36;1.23;;;0.20;;
70558;SDS011;58108;48.094;11.838;2024-03-06T05:00:06;1.63;;;0.35;;
70558;SDS011;58108;48.094;11.838;2024-03-06T05:02:33;1.60;;;0.20;;
70558;SDS011;58108;48.094;11.838;2024-03-06T05:05:01;2.05;;;0.50;;
70558;SDS011;58108;48.094;11.838;2024-03-06T05:07:30;3.73;;;1.20;;
70558;SDS011;58108;48.094;11.838;2024-03-06T05:09:57;2.35;;;0.65;;
70558;SDS011;58108;48.094;11.838;2024-03-06T05:12:24;2.53;;;0.60;;
70558;SDS011;58108;48.094;11.838;2024-03-06T05:14:52;2.90;;;0.57;;
70558;SDS011;58108;48.094;11.838;2024-03-06T05:17:19;1.80;;;0.28;;
70558;SDS011;58108;48.094;11.838;2024-03-06T05:19:45;1.57;;;0.30;;
70558;SDS011;58108;48.094;11.838;2024-03-06T05:22:13;1.75;;;0.28;;
70558;SDS011;58108;48.094;11.838;2024-03-06T05:24:39;2.08;;;0.40;;
70558;SDS011;58108;48.094;11.838;2024-03-06T05:27:05;2.15;;;0.47;;
70558;SDS011;58108;48.094;11.838;2024-03-06T05:29:31;0.80;;;0.10;;
70558;SDS011;58108;48.094;11.838;2024-03-06T05:31:56;2.47;;;0.40;;
70558;SDS011;58108;48.094;11.838;2024-03-06T05:34:22;1.20;;;0.20;;
70558;SDS011;58108;48.094;11.838;2024-03-06T05:36:48;2.05;;;0.40;;
70558;SDS011;58108;48.094;11.838;2024-03-06T05:39:14;1.20;;;0.20;;
70558;SDS011;58108;48.094;11.838;2024-03-06T05:41:39;1.97;;;0.20;;
70558;SDS011;58108;48.094;11.838;2024-03-06T05:44:06;0.85;;;0.20;;
70558;SDS011;58108;48.094;11.838;2024-03-06T05:46:32;0.67;;;0.10;;
70558;SDS011;58108;48.094;11.838;2024-03-06T05:48:57;1.33;;;0.10;;
70558;SDS011;58108;48.094;11.838;2024-03-06T05:51:23;1.10;;;0.23;;
70558;SDS011;58108;48.094;11.838;2024-03-06T05:53:49;1.50;;;0.17;;
70558;SDS011;58108;48.094;11.838;2024-03-06T05:56:14;1.97;;;0.30;;
70558;SDS011;58108;48.094;11.838;2024-03-06T05:58:42;1.55;;;0.20;;
70558;SDS011;58108;48.094;11.838;2024-03-06T06:01:07;0.73;;;0.10;;
70558;SDS011;58108;48.094;11.838;2024-03-06T06:03:33;1.33;;;0.10;;
70558;SDS011;58108;48.094;11.838;2024-03-06T06:05:59;1.30;;;0.20;;
70558;SDS011;58108;48.094;11.838;2024-03-06T06:08:24;1.90;;;0.20;;
70558;SDS011;58108;48.094;11.838;2024-03-06T06:10:50;3.73;;;0.60;;
70558;SDS011;58108;48.094;11.838;2024-03-06T06:13:17;1.65;;;0.20;;
70558;SDS011;58108;48.094;11.838;2024-03-06T06:15:44;1.92;;;0.20;;
70558;SDS011;58108;48.094;11.838;2024-03-06T06:18:09;1.77;;;0.20;;
70558;SDS011;58108;48.094;11.838;2024-03-06T06:20:35;2.13;;;0.30;;
70558;SDS011;58108;48.094;11.838;2024-03-06T06:23:01;1.87;;;0.40;;
70558;SDS011;58108;48.094;11.838;2024-03-06T06:25:26;1.52;;;0.17;;
70558;SDS011;58108;48.094;11.838;2024-03-06T06:27:52;2.20;;;0.30;;
70558;SDS011;58108;48.094;11.838;2024-03-06T06:30:17;1.70;;;0.20;;
70558;SDS011;58108;48.094;11.838;2024-03-06T06:32:44;1.60;;;0.30;;
70558;SDS011;58108;48.094;11.838;2024-03-06T06:35:10;1.97;;;0.30;;
70558;SDS011;58108;48.094;11.838;2024-03-06T06:37:39;1.50;;;0.28;;
70558;SDS011;58108;48.094;11.838;2024-03-06T06:40:06;2.70;;;0.70;;
70558;SDS011;58108;48.094;11.838;2024-03-06T06:42:32;1.33;;;0.30;;
70558;SDS011;58108;48.094;11.838;2024-03-06T06:44:59;1.40;;;0.40;;
70558;SDS011;58108;48.094;11.838;2024-03-06T06:47:25;1.75;;;0.43;;
70558;SDS011;58108;48.094;11.838;2024-03-06T06:49:50;2.65;;;0.85;;
70558;SDS011;58108;48.094;11.838;2024-03-06T06:52:16;1.40;;;0.37;;
70558;SDS011;58108;48.094;11.838;2024-03-06T06:54:42;3.53;;;0.47;;
70558;SDS011;58108;48.094;11.838;2024-03-06T06:57:08;2.47;;;0.50;;
70558;SDS011;58108;48.094;11.838;2024-03-06T06:59:33;1.50;;;0.28;;
70558;SDS011;58108;48.094;11.838;2024-03-06T07:02:00;1.67;;;0.30;;
70558;SDS011;58108;48.094;11.838;2024-03-06T07:04:26;2.00;;;0.30;;
70558;SDS011;58108;48.094;11.838;2024-03-06T07:06:51;3.17;;;0.80;;
70558;SDS011;58108;48.094;11.838;2024-03-06T07:09:17;2.83;;;0.60;;
70558;SDS011;58108;48.094;11.838;2024-03-06T07:11:43;2.80;;;0.52;;
70558;SDS011;58108;48.094;11.838;2024-03-06T07:14:10;1.60;;;0.20;;
70558;SDS011;58108;48.094;11.838;2024-03-06T07:16:43;3.13;;;0.60;;
70558;SDS011;58108;48.094;11.838;2024-03-06T07:19:10;2.58;;;0.38;;
70558;SDS011;58108;48.094;11.838;2024-03-06T07:21:36;2.90;;;0.77;;
70558;SDS011;58108;48.094;11.838;2024-03-06T07:24:03;2.78;;;0.68;;
70558;SDS011;58108;48.094;11.838;2024-03-06T07:26:29;2.77;;;0.70;;
70558;SDS011;58108;48.094;11.838;2024-03-06T07:28:57;2.85;;;0.63;;
70558;SDS011;58108;48.094;11.838;2024-03-06T07:31:24;3.00;;;0.70;;
70558;SDS011;58108;48.094;11.838;2024-03-06T07:33:50;1.70;;;0.30;;
70558;SDS011;58108;48.094;11.838;2024-03-06T07:36:16;1.77;;;0.30;;
70558;SDS011;58108;48.094;11.838;2024-03-06T07:38:44;2.80;;;0.50;;
70558;SDS011;58108;48.094;11.838;2024-03-06T07:41:10;3.75;;;0.93;;
70558;SDS011;58108;48.094;11.838;2024-03-06T07:43:37;1.58;;;0.43;;
70558;SDS011;58108;48.094;11.838;2024-03-06T07:46:03;4.00;;;0.90;;
70558;SDS011;58108;48.094;11.838;2024-03-06T07:48:36;3.05;;;0.70;;
70558;SDS011;58108;48.094;11.838;2024-03-06T07:51:02;3.17;;;0.70;;
70558;SDS011;58108;48.094;11.838;2024-03-06T07:53:28;2.58;;;0.65;;
70558;SDS011;58108;48.094;11.838;2024-03-06T07:55:53;3.33;;;0.87;;
70558;SDS011;58108;48.094;11.838;2024-03-06T07:58:19;2.10;;;0.53;;
70558;SDS011;58108;48.094;11.838;2024-03-06T08:00:46;2.80;;;0.52;;
70558;SDS011;58108;48.094;11.838;2024-03-06T08:03:12;1.30;;;0.30;;
70558;SDS011;58108;48.094;11.838;2024-03-06T08:05:39;2.97;;;0.70;;
70558;SDS011;58108;48.094;11.838;2024-03-06T08:08:04;1.35;;;0.40;;
70558;SDS011;58108;48.094;11.838;2024-03-06T08:10:30;2.63;;;0.70;;
70558;SDS011;58108;48.094;11.838;2024-03-06T08:12:56;3.20;;;0.70;;
70558;SDS011;58108;48.094;11.838;2024-03-06T08:15:22;2.10;;;0.43;;
70558;SDS011;58108;48.094;11.838;2024-03-06T08:17:48;1.47;;;0.53;;
70558;SDS011;58108;48.094;11.838;2024-03-06T08:20:14;3.85;;;0.40;;
70558;SDS011;58108;48.094;11.838;2024-03-06T08:22:40;3.17;;;0.80;;
70558;SDS011;58108;48.094;11.838;2024-03-06T08:25:08;3.60;;;0.60;;
70558;SDS011;58108;48.094;11.838;2024-03-06T08:27:35;3.92;;;1.20;;
70558;SDS011;58108;48.094;11.838;2024-03-06T08:30:05;2.03;;;0.70;;
70558;SDS011;58108;48.094;11.838;2024-03-06T08:32:32;1.38;;;0.30;;
70558;SDS011;58108;48.094;11.838;2024-03-06T08:35:02;2.77;;;0.70;;
70558;SDS011;58108;48.094;11.838;2024-03-06T08:37:31;1.58;;;0.28;;
70558;SDS011;58108;48.094;11.838;2024-03-06T08:39:58;2.40;;;0.40;;
70558;SDS011;58108;48.094;11.838;2024-03-06T08:42:24;0.90;;;0.20;;
70558;SDS011;58108;48.094;11.838;2024-03-06T08:44:49;1.87;;;0.37;;
70558;SDS011;58108;48.094;11.838;2024-03-06T08:47:15;2.37;;;0.60;;
70558;SDS011;58108;48.094;11.838;2024-03-06T08:49:40;3.97;;;0.60;;
70558;SDS011;58108;48.094;11.838;2024-03-06T08:52:06;1.90;;;0.40;;
70558;SDS011;58108;48.094;11.838;2024-03-06T08:54:31;2.60;;;0.90;;
70558;SDS011;58108;48.094;11.838;2024-03-06T08:56:57;1.50;;;0.45;;
70558;SDS011;58108;48.094;11.838;2024-03-06T08:59:24;0.93;;;0.13;;
70558;SDS011;58108;48.094;11.838;2024-03-06T09:01:51;2.22;;;0.52;;
70558;SDS011;58108;48.094;11.838;2024-03-06T09:04:19;2.97;;;0.75;;
70558;SDS011;58108;48.094;11.838;2024-03-06T09:06:45;1.93;;;0.50;;
70558;SDS011;58108;48.094;11.838;2024-03-06T09:09:11;2.00;;;0.38;;
70558;SDS011;58108;48.094;11.838;2024-03-06T09:11:43;2.93;;;0.63;;
70558;SDS011;58108;48.094;11.838;2024-03-06T09:14:09;1.92;;;0.47;;
70558;SDS011;58108;48.094;11.838;2024-03-06T09:16:35;2.38;;;0.60;;
70558;SDS011;58108;48.094;11.838;2024-03-06T09:19:01;2.22;;;0.47;;
70558;SDS011;58108;48.094;11.838;2024-03-06T09:21:27;2.73;;;0.50;;
70558;SDS011;58108;48.094;11.838;2024-03-06T09:23:53;2.80;;;0.55;;
70558;SDS011;58108;48.094;11.838;2024-03-06T09:26:18;2.30;;;0.60;;
70558;SDS011;58108;48.094;11.838;2024-03-06T09:28:45;1.23;;;0.35;;
70558;SDS011;58108;48.094;11.838;2024-03-06T09:31:11;3.03;;;0.45;;
70558;SDS011;58108;48.094;11.838;2024-03-06T09:33:38;2.58;;;0.82;;
70558;SDS011;58108;48.094;11.838;2024-03-06T09:36:04;2.47;;;0.40;;
70558;SDS011;58108;48.094;11.838;2024-03-06T09:38:30;2.80;;;0.70;;
70558;SDS011;58108;48.094;11.838;2024-03-06T09:40:56;3.50;;;0.90;;
70558;SDS011;58108;48.094;11.838;2024-03-06T09:43:22;3.03;;;0.98;;
70558;SDS011;58108;48.094;11.838;2024-03-06T09:45:48;3.88;;;1.00;;
70558;SDS011;58108;48.094;11.838;2024-03-06T09:48:15;2.20;;;0.60;;
70558;SDS011;58108;48.094;11.838;2024-03-06T09:50:43;3.13;;;0.67;;
70558;SDS011;58108;48.094;11.838;2024-03-06T09:53:12;3.08;;;0.82;;
70558;SDS011;58108;48.094;11.838;2024-03-06T09:55:40;2.58;;;0.70;;
70558;SDS011;58108;48.094;11.838;2024-03-06T09:58:07;1.30;;;0.32;;
70558;SDS011;58108;48.094;11.838;2024-03-06T10:00:34;1.92;;;0.50;;
70558;SDS011;58108;48.094;11.838;2024-03-06T10:03:01;1.90;;;0.50;;
70558;SDS011;58108;48.094;11.838;2024-03-06T10:05:33;2.40;;;0.73;;
70558;SDS011;58108;48.094;11.838;2024-03-06T10:08:03;1.73;;;0.45;;
70558;SDS011;58108;48.094;11.838;2024-03-06T10:10:31;3.33;;;0.85;;
70558;SDS011;58108;48.094;11.838;2024-03-06T10:12:57;1.90;;;0.27;;
70558;SDS011;58108;48.094;11.838;2024-03-06T10:15:25;1.45;;;0.22;;
70558;SDS011;58108;48.094;11.838;2024-03-06T10:18:12;2.28;;;0.50;;
70558;SDS011;58108;48.094;11.838;2024-03-06T10:20:39;1.67;;;0.75;;
70558;SDS011;58108;48.094;11.838;2024-03-06T10:23:07;2.40;;;0.88;;
70558;SDS011;58108;48.094;11.838;2024-03-06T10:25:34;3.37;;;1.03;;
70558;SDS011;58108;48.094;11.838;2024-03-06T10:28:03;2.03;;;0.50;;
70558;SDS011;58108;48.094;11.838;2024-03-06T10:30:34;3.47;;;0.47;;
70558;SDS011;58108;48.094;11.838;2024-03-06T10:33:04;1.70;;;0.43;;
70558;SDS011;58108;48.094;11.838;2024-03-06T10:35:33;3.33;;;0.90;;
70558;SDS011;58108;48.094;11.838;2024-03-06T10:38:05;3.17;;;0.95;;
70558;SDS011;58108;48.094;11.838;2024-03-06T10:40:33;4.30;;;1.00;;
70558;SDS011;58108;48.094;11.838;2024-03-06T10:43:00;3.17;;;0.60;;
70558;SDS011;58108;48.094;11.838;2024-03-06T10:45:34;3.93;;;1.07;;
70558;SDS011;58108;48.094;11.838;2024-03-06T10:48:08;3.83;;;0.90;;
70558;SDS011;58108;48.094;11.838;2024-03-06T10:50:40;3.83;;;0.95;;
70558;SDS011;58108;48.094;11.838;2024-03-06T10:53:10;3.40;;;0.90;;
70558;SDS011;58108;48.094;11.838;2024-03-06T10:55:43;2.58;;;0.52;;
70558;SDS011;58108;48.094;11.838;2024-03-06T10:58:09;2.37;;;0.90;;
70558;SDS011;58108;48.094;11.838;2024-03-06T11:00:39;2.33;;;0.80;;
70558;SDS011;58108;48.094;11.838;2024-03-06T11:03:08;3.10;;;1.05;;
70558;SDS011;58108;48.094;11.838;2024-03-06T11:05:40;2.92;;;1.00;;
70558;SDS011;58108;48.094;11.838;2024-03-06T11:08:07;3.78;;;0.90;;
70558;SDS011;58108;48.094;11.838;2024-03-06T11:10:35;2.50;;;0.63;;
70558;SDS011;58108;48.094;11.838;2024-03-06T11:13:01;1.40;;;0.40;;
70558;SDS011;58108;48.094;11.838;2024-03-06T11:15:29;3.53;;;0.98;;
70558;SDS011;58108;48.094;11.838;2024-03-06T11:17:55;2.80;;;0.80;;
70558;SDS011;58108;48.094;11.838;2024-03-06T11:20:21;2.58;;;0.80;;
70558;SDS011;58108;48.094;11.838;2024-03-06T11:28:20;3.78;;;1.02;;
70558;SDS011;58108;48.094;11.838;2024-03-06T11:31:02;3.38;;;0.90;;
70558;SDS011;58108;48.094;11.838;2024-03-06T11:33:37;4.57;;;1.27;;
70558;SDS011;58108;48.094;11.838;2024-03-06T11:41:24;3.97;;;1.23;;
70558;SDS011;58108;48.094;11.838;2024-03-06T11:43:59;0.80;;;0.38;;
70558;SDS011;58108;48.094;11.838;2024-03-06T11:49:13;3.40;;;1.00;;
70558;SDS011;58108;48.094;11.838;2024-03-06T11:51:40;3.47;;;1.20;;
70558;SDS011;58108;48.094;11.838;2024-03-06T11:54:06;3.38;;;0.98;;
70558;SDS011;58108;48.094;11.838;2024-03-06T11:56:32;4.90;;;1.37;;
70558;SDS011;58108;48.094;11.838;2024-03-06T11:58:58;1.73;;;0.52;;
70558;SDS011;58108;48.094;11.838;2024-03-06T12:01:24;3.42;;;0.90;;
70558;SDS011;58108;48.094;11.838;2024-03-06T12:03:49;4.30;;;1.35;;
70558;SDS011;58108;48.094;11.838;2024-03-06T12:06:15;3.10;;;1.10;;
70558;SDS011;58108;48.094;11.838;2024-03-06T12:08:42;3.78;;;0.73;;
70558;SDS011;58108;48.094;11.838;2024-03-06T12:11:07;4.25;;;1.45;;
70558;SDS011;58108;48.094;11.838;2024-03-06T12:13:33;3.80;;;1.23;;
70558;SDS011;58108;48.094;11.838;2024-03-06T12:16:03;4.25;;;1.30;;
70558;SDS011;58108;48.094;11.838;2024-03-06T12:18:30;4.97;;;1.10;;
70558;SDS011;58108;48.094;11.838;2024-03-06T12:20:56;4.45;;;1.20;;
70558;SDS011;58108;48.094;11.838;2024-03-06T12:23:21;3.27;;;1.20;;
70558;SDS011;58108;48.094;11.838;2024-03-06T12:25:48;3.53;;;0.75;;
70558;SDS011;58108;48.094;11.838;2024-03-06T12:28:14;1.88;;;0.52;;
70558;SDS011;58108;48.094;11.838;2024-03-06T12:30:43;3.30;;;1.20;;
70558;SDS011;58108;48.094;11.838;2024-03-06T12:33:10;3.28;;;0.80;;
70558;SDS011;58108;48.094;11.838;2024-03-06T12:35:40;3.50;;;0.98;;
70558;SDS011;58108;48.094;11.838;2024-03-06T12:38:12;2.20;;;0.40;;
70558;SDS011;58108;48.094;11.838;2024-03-06T12:40:39;1.83;;;0.63;;
70558;SDS011;58108;48.094;11.838;2024-03-06T12:43:05;7.32;;;1.50;;
70558;SDS011;58108;48.094;11.838;2024-03-06T12:45:31;4.13;;;1.40;;
70558;SDS011;58108;48.094;11.838;2024-03-06T12:47:56;5.05;;;1.48;;
70558;SDS011;58108;48.094;11.838;2024-03-06T12:50:22;5.00;;;1.20;;
70558;SDS011;58108;48.094;11.838;2024-03-06T12:52:47;6.03;;;1.70;;
70558;SDS011;58108;48.094;11.838;2024-03-06T12:55:12;4.77;;;1.40;;
70558;SDS011;58108;48.094;11.838;2024-03-06T12:57:39;4.72;;;1.38;;
70558;SDS011;58108;48.094;11.838;2024-03-06T13:00:05;6.07;;;1.90;;
70558;SDS011;58108;48.094;11.838;2024-03-06T13:02:44;5.33;;;1.70;;
70558;SDS011;58108;48.094;11.838;2024-03-06T13:05:10;7.90;;;2.80;;
70558;SDS011;58108;48.094;11.838;2024-03-06T13:07:37;10.48;;;3.58;;
70558;SDS011;58108;48.094;11.838;2024-03-06T13:10:02;6.57;;;2.40;;
70558;SDS011;58108;48.094;11.838;2024-03-06T13:12:28;7.43;;;1.98;;
70558;SDS011;58108;48.094;11.838;2024-03-06T13:14:54;5.27;;;1.23;;
70558;SDS011;58108;48.094;11.838;2024-03-06T13:17:19;4.57;;;1.33;;
70558;SDS011;58108;48.094;11.838;2024-03-06T13:19:45;2.80;;;0.70;;
70558;SDS011;58108;48.094;11.838;2024-03-06T13:22:11;3.13;;;1.00;;
70558;SDS011;58108;48.094;11.838;2024-03-06T13:24:36;1.60;;;0.27;;
70558;SDS011;58108;48.094;11.838;2024-03-06T13:27:03;4.95;;;1.23;;
70558;SDS011;58108;48.094;11.838;2024-03-06T13:29:28;6.83;;;2.27;;
70558;SDS011;58108;48.094;11.838;2024-03-06T13:31:54;9.05;;;2.50;;
70558;SDS011;58108;48.094;11.838;2024-03-06T13:34:20;5.57;;;1.60;;
70558;SDS011;58108;48.094;11.838;2024-03-06T13:36:46;5.32;;;1.73;;
70558;SDS011;58108;48.094;11.838;2024-03-06T13:39:11;2.77;;;1.37;;
70558;SDS011;58108;48.094;11.838;2024-03-06T13:41:37;3.05;;;1.10;;
70558;SDS011;58108;48.094;11.838;2024-03-06T13:44:02;3.78;;;1.38;;
70558;SDS011;58108;48.094;11.838;2024-03-06T13:46:28;2.97;;;1.03;;
70558;SDS011;58108;48.094;11.838;2024-03-06T13:48:53;4.70;;;1.63;;
70558;SDS011;58108;48.094;11.838;2024-03-06T13:51:19;4.35;;;1.27;;
70558;SDS011;58108;48.094;11.838;2024-03-06T13:53:44;5.07;;;1.07;;
70558;SDS011;58108;48.094;11.838;2024-03-06T13:56:10;6.07;;;1.83;;
70558;SDS011;58108;48.094;11.838;2024-03-06T13:58:35;3.22;;;1.30;;
70558;SDS011;58108;48.094;11.838;2024-03-06T14:01:01;3.80;;;1.03;;
70558;SDS011;58108;48.094;11.838;2024-03-06T14:03:27;3.45;;;1.00;;
70558;SDS011;58108;48.094;11.838;2024-03-06T14:05:53;2.30;;;0.43;;
70558;SDS011;58108;48.094;11.838;2024-03-06T14:08:18;3.77;;;1.03;;
70558;SDS011;58108;48.094;11.838;2024-03-06T14:10:44;2.67;;;0.68;;
70558;SDS011;58108;48.094;11.838;2024-03-06T14:13:10;3.43;;;0.87;;
70558;SDS011;58108;48.094;11.838;2024-03-06T14:15:36;3.58;;;1.13;;
70558;SDS011;58108;48.094;11.838;2024-03-06T14:18:01;2.50;;;0.67;;
70558;SDS011;58108;48.094;11.838;2024-03-06T14:20:27;4.20;;;0.73;;
70558;SDS011;58108;48.094;11.838;2024-03-06T14:22:53;3.47;;;1.00;;
70558;SDS011;58108;48.094;11.838;2024-03-06T14:25:19;2.97;;;0.70;;
70558;SDS011;58108;48.094;11.838;2024-03-06T14:27:46;3.33;;;0.87;;
70558;SDS011;58108;48.094;11.838;2024-03-06T14:30:12;2.17;;;0.80;;
70558;SDS011;58108;48.094;11.838;2024-03-06T14:32:40;1.67;;;0.52;;
70558;SDS011;58108;48.094;11.838;2024-03-06T14:35:06;4.30;;;1.40;;
70558;SDS011;58108;48.094;11.838;2024-03-06T14:37:32;3.25;;;0.88;;
70558;SDS011;58108;48.094;11.838;2024-03-06T14:39:57;4.75;;;1.42;;
70558;SDS011;58108;48.094;11.838;2024-03-06T14:42:23;3.38;;;0.80;;